createdAt,value
2022-11-22T00:02:53.158Z,98280.44
2022-11-22T00:07:54.689Z,98279.56
2022-11-22T00:12:56.236Z,98263.00
2022-11-22T00:17:58.253Z,98272.06
2022-11-22T00:22:59.920Z,98270.47
2022-11-22T00:28:01.537Z,98274.41
2022-11-22T00:33:03.501Z,98281.56
2022-11-22T00:38:05.039Z,98292.59
2022-11-22T00:43:06.570Z,98304.94
2022-11-22T00:48:08.099Z,98310.75
2022-11-22T00:53:09.795Z,98322.53
2022-11-22T00:58:11.436Z,98319.88
2022-11-22T01:03:13.851Z,98328.94
2022-11-22T01:08:15.405Z,98336.31
2022-11-22T01:13:16.980Z,98358.72
2022-11-22T01:18:18.538Z,98363.97
2022-11-22T01:23:20.117Z,98365.09
2022-11-22T01:28:21.752Z,98380.41
2022-11-22T01:33:23.385Z,98383.72
2022-11-22T01:38:25.505Z,98395.16
2022-11-22T01:43:28.594Z,98394.66
2022-11-22T01:49:00.788Z,98405.03
2022-11-22T01:54:09.787Z,98403.44
2022-11-22T01:59:16.468Z,98404.28
2022-11-22T02:04:19.740Z,98415.75
2022-11-22T02:09:22.628Z,98421.78
2022-11-22T02:14:27.516Z,98423.16
2022-11-22T02:19:58.534Z,98431.88
2022-11-22T02:25:12.913Z,98442.28
2022-11-22T02:30:15.450Z,98442.28
2022-11-22T02:35:27.436Z,98459.44
2022-11-22T02:40:33.596Z,98467.09
2022-11-22T02:45:35.176Z,98482.13
2022-11-22T02:50:37.199Z,98486.94
2022-11-22T02:55:38.799Z,98484.16
2022-11-22T03:00:41.158Z,98490.28
2022-11-22T03:05:42.744Z,98494.28
2022-11-22T03:10:44.382Z,98500.19
2022-11-22T03:15:48.757Z,98494.94
2022-11-22T03:20:50.338Z,98500.25
2022-11-22T03:25:51.887Z,98502.81
2022-11-22T03:30:57.665Z,98511.28
2022-11-22T03:35:59.242Z,98515.16
2022-11-22T03:41:00.973Z,98526.19
2022-11-22T03:46:02.536Z,98521.84
2022-11-22T03:51:05.730Z,98528.13
2022-11-22T03:56:07.347Z,98539.00
2022-11-22T04:01:12.049Z,98543.03
2022-11-22T04:06:17.987Z,98544.41
2022-11-22T04:11:19.551Z,98533.88
2022-11-22T04:16:21.118Z,98522.47
2022-11-22T04:21:34.910Z,98530.06
2022-11-22T04:26:36.619Z,98535.50
2022-11-22T04:31:56.885Z,98530.63
2022-11-22T04:36:59.033Z,98523.66
2022-11-22T04:42:21.836Z,98516.91
2022-11-22T04:47:45.050Z,98509.31
2022-11-22T04:52:56.151Z,98496.50
2022-11-22T04:58:00.022Z,98488.00
2022-11-22T05:03:08.475Z,98483.34
2022-11-22T05:08:12.724Z,98490.53
2022-11-22T05:13:14.284Z,98490.44
2022-11-22T05:18:15.877Z,98478.75
2022-11-22T05:23:37.757Z,98488.66
2022-11-22T05:28:39.698Z,98492.28
2022-11-22T05:33:43.188Z,98501.72
2022-11-22T05:38:44.791Z,98515.41
2022-11-22T05:43:46.361Z,98519.09
2022-11-22T05:48:48.768Z,98525.34
2022-11-22T05:53:50.432Z,98530.28
2022-11-22T05:58:53.044Z,98543.47
2022-11-22T06:03:54.640Z,98542.84
2022-11-22T06:08:56.204Z,98566.56
2022-11-22T06:14:04.638Z,98571.03
2022-11-22T06:19:06.235Z,98577.75
2022-11-22T06:24:08.242Z,98573.97
2022-11-22T06:29:09.936Z,98579.41
2022-11-22T06:34:12.563Z,98580.00
2022-11-22T06:39:14.160Z,98596.66
2022-11-22T06:44:15.693Z,98603.41
2022-11-22T06:49:17.263Z,98601.28
2022-11-22T06:54:18.883Z,98601.03
2022-11-22T06:59:20.522Z,98604.13
2022-11-22T07:04:22.203Z,98607.31
2022-11-22T07:09:23.868Z,98618.63
2022-11-22T07:14:25.436Z,98633.16
2022-11-22T07:19:27.121Z,98648.88
2022-11-22T07:24:30.296Z,98651.81
2022-11-22T07:29:32.157Z,98650.84
2022-11-22T07:34:33.878Z,98666.41
2022-11-22T07:39:36.525Z,98668.50
2022-11-22T07:44:38.081Z,98686.09
2022-11-22T07:49:39.965Z,98697.09
2022-11-22T07:54:41.509Z,98713.38
2022-11-22T07:59:43.091Z,98716.06
2022-11-22T08:04:44.674Z,98719.00
2022-11-22T08:09:46.414Z,98734.69
2022-11-22T08:14:47.963Z,98734.06
2022-11-22T08:19:53.419Z,98739.13
2022-11-22T08:24:54.959Z,98737.09
2022-11-22T08:29:56.527Z,98730.50
2022-11-22T08:34:58.093Z,98735.06
2022-11-22T08:40:00.028Z,98732.63
2022-11-22T08:45:01.620Z,98741.31
2022-11-22T08:50:06.726Z,98751.84
2022-11-22T08:55:08.763Z,98739.25
2022-11-22T09:00:11.384Z,98746.50
2022-11-22T09:05:12.930Z,98749.38
2022-11-22T09:10:14.506Z,98761.34
2022-11-22T09:15:16.832Z,98764.53
2022-11-22T09:20:18.448Z,98764.75
2022-11-22T09:25:20.026Z,98773.56
2022-11-22T09:30:21.873Z,98771.72
2022-11-22T09:35:23.484Z,98765.66
2022-11-22T09:40:25.114Z,98771.78
2022-11-22T09:45:55.137Z,98785.06
2022-11-22T09:51:02.775Z,98819.22
2022-11-22T09:56:11.239Z,98833.09
2022-11-22T10:01:17.367Z,98847.31
2022-11-22T10:06:30.279Z,98854.34
2022-11-22T10:11:43.124Z,98855.38
2022-11-22T10:16:55.394Z,98858.16
2022-11-22T10:21:56.953Z,98860.97
2022-11-22T10:27:00.476Z,98860.50
2022-11-22T10:32:19.322Z,98857.31
2022-11-22T10:37:56.946Z,98857.75
2022-11-22T10:43:22.402Z,98879.53
2022-11-22T10:48:54.304Z,98899.69
2022-11-22T10:54:33.655Z,98910.22
2022-11-22T11:00:02.918Z,98926.03
2022-11-22T11:05:11.517Z,98953.78
2022-11-22T11:10:33.785Z,98978.50
2022-11-22T11:15:39.428Z,99019.34
2022-11-22T11:20:43.607Z,99047.09
2022-11-22T11:25:47.991Z,99095.06
2022-11-22T11:30:56.635Z,99119.69
2022-11-22T11:36:09.651Z,99149.19
2022-11-22T11:41:32.945Z,99145.22
2022-11-22T11:46:40.549Z,99096.38
2022-11-22T11:51:48.392Z,99083.31
2022-11-22T11:56:58.273Z,99038.25
2022-11-22T12:02:05.478Z,98905.47
2022-11-22T12:07:35.380Z,98877.38
2022-11-22T12:12:45.339Z,98804.53
2022-11-22T12:17:52.700Z,98804.78
2022-11-22T12:23:12.835Z,98749.78
2022-11-22T12:28:30.714Z,98733.63
2022-11-22T12:33:43.948Z,98706.81
2022-11-22T12:38:49.202Z,98687.94
2022-11-22T12:43:58.438Z,98671.53
2022-11-22T12:49:11.533Z,98668.19
2022-11-22T12:54:21.578Z,98638.13
2022-11-22T12:59:38.625Z,98620.59
2022-11-22T13:04:53.527Z,98620.59
2022-11-22T13:10:34.410Z,98606.34
2022-11-22T13:15:38.326Z,98595.16
2022-11-22T13:20:45.060Z,98565.81
2022-11-22T13:26:27.870Z,98578.41
2022-11-22T13:31:29.480Z,98586.84
2022-11-22T13:36:30.972Z,98563.31
2022-11-22T13:42:02.638Z,98560.00
2022-11-22T13:47:13.077Z,98563.78
2022-11-22T13:52:14.568Z,98559.69
2022-11-22T13:57:25.440Z,98557.78
2022-11-22T14:02:27.499Z,98558.84
2022-11-22T14:07:34.538Z,98550.09
2022-11-22T14:12:50.963Z,98546.22
2022-11-22T14:17:59.572Z,98531.63
2022-11-22T14:23:16.290Z,98523.06
2022-11-22T14:28:36.596Z,98555.44
2022-11-22T14:34:14.544Z,98549.59
2022-11-22T14:39:44.242Z,98555.19
2022-11-22T14:44:46.981Z,98557.81
2022-11-22T14:49:49.686Z,98579.31
2022-11-22T14:54:57.649Z,98576.53
2022-11-22T15:00:15.084Z,98588.22
2022-11-22T15:09:10.441Z,98597.50
2022-11-22T15:11:37.859Z,98591.09
2022-11-22T16:00:21.792Z,98638.28
2022-11-22T16:06:06.152Z,98649.09
2022-11-22T16:10:56.379Z,98659.94
2022-11-22T16:16:04.111Z,98671.53
2022-11-22T16:21:11.741Z,98671.66
2022-11-22T16:26:22.126Z,98683.50
2022-11-22T16:31:31.561Z,98680.94
2022-11-22T16:36:35.923Z,98682.75
2022-11-22T16:41:37.512Z,98672.38
2022-11-22T16:46:42.527Z,98679.59
2022-11-22T16:51:44.824Z,98684.94
2022-11-22T16:56:46.622Z,98692.34
2022-11-22T17:01:59.961Z,98682.78
2022-11-22T17:07:01.527Z,98701.81
2022-11-22T17:12:04.119Z,98701.66
2022-11-22T17:17:05.718Z,98694.31
2022-11-22T17:22:07.406Z,98691.53
2022-11-22T17:27:15.177Z,98708.31
2022-11-22T17:32:16.710Z,98717.44
2022-11-22T17:37:18.319Z,98708.94
2022-11-22T17:42:20.255Z,98722.81
2022-11-22T17:47:21.808Z,98718.47
2022-11-22T17:52:23.368Z,98722.84
2022-11-22T17:57:24.921Z,98733.03
2022-11-22T18:02:26.502Z,98738.84
2022-11-22T18:07:31.196Z,98750.75
2022-11-22T18:12:42.057Z,98753.38
2022-11-22T18:17:48.006Z,98749.69
2022-11-22T18:22:49.543Z,98758.53
2022-11-22T18:27:53.984Z,98758.09
2022-11-22T18:33:01.811Z,98771.22
2022-11-22T18:38:06.196Z,98772.25
2022-11-22T18:43:07.748Z,98771.44
2022-11-22T18:48:11.910Z,98763.16
2022-11-22T18:53:13.451Z,98774.63
2022-11-22T18:58:15.040Z,98782.91
2022-11-22T19:03:16.588Z,98780.88
2022-11-22T19:08:18.149Z,98777.91
2022-11-22T19:13:19.693Z,98784.41
2022-11-22T19:18:21.250Z,98779.06
2022-11-22T19:23:22.801Z,98771.19
2022-11-22T19:28:28.503Z,98775.88
2022-11-22T19:33:30.096Z,98773.63
2022-11-22T19:38:36.055Z,98772.44
2022-11-22T19:43:38.124Z,98777.38
2022-11-22T19:48:45.328Z,98785.97
2022-11-22T19:53:48.873Z,98792.72
2022-11-22T19:58:52.690Z,98792.13
2022-11-22T20:03:59.656Z,98795.19
2022-11-22T20:09:03.768Z,98794.81
2022-11-22T20:14:06.507Z,98814.28
2022-11-22T20:19:10.556Z,98816.09
2022-11-22T20:24:13.371Z,98817.03
2022-11-22T20:29:15.990Z,98826.28
2022-11-22T20:34:17.534Z,98834.25
2022-11-22T20:39:19.076Z,98847.50
2022-11-22T20:44:24.562Z,98878.09
2022-11-22T20:49:28.255Z,98897.72
2022-11-22T20:54:30.114Z,98906.03
2022-11-22T20:59:31.756Z,98917.16
2022-11-22T21:04:36.523Z,98929.34
2022-11-22T21:09:38.208Z,98946.38
2022-11-22T21:14:39.770Z,98959.53
2022-11-22T21:19:41.357Z,98971.31
2022-11-22T21:24:45.261Z,98976.72
2022-11-22T21:29:47.169Z,98980.94
2022-11-22T21:34:54.109Z,98987.41
2022-11-22T21:39:55.675Z,98981.47
2022-11-22T21:44:57.236Z,98981.84
2022-11-22T21:49:58.788Z,98980.66
2022-11-22T21:55:06.565Z,98980.28
2022-11-22T22:00:09.064Z,98975.22
2022-11-22T22:05:11.450Z,98978.97
2022-11-22T22:10:14.525Z,98982.28
2022-11-22T22:15:16.548Z,98976.81
2022-11-22T22:20:24.815Z,98980.84
2022-11-22T22:25:26.379Z,98994.19
2022-11-22T22:30:27.989Z,99006.03
2022-11-22T22:35:29.647Z,99004.06
2022-11-22T22:40:31.200Z,99010.09
2022-11-22T22:45:35.004Z,99012.41
2022-11-22T22:50:42.329Z,99006.34
2022-11-22T22:56:03.675Z,99009.66
2022-11-22T23:01:19.760Z,99007.88
2022-11-22T23:06:24.908Z,98974.16
2022-11-22T23:11:50.196Z,98955.78
2022-11-22T23:16:57.339Z,98969.66
2022-11-22T23:21:59.670Z,98970.31
2022-11-22T23:27:06.192Z,98952.81
2022-11-22T23:32:07.791Z,98948.56
2022-11-22T23:37:09.335Z,98947.41
2022-11-22T23:42:10.879Z,98940.13
2022-11-22T23:47:12.432Z,98940.81
2022-11-22T23:52:18.895Z,98941.34
2022-11-22T23:57:20.499Z,98944.06
